Greenwood, Arkansas
Current Conditions -  °F | °C
As of 5:53 PM on Wednesday 26 Nov 2014 (Local Time) from KFSM Reporting Station
Clear Clear  
Wind Chill: 52°   Ceiling: Unl
Heat Index: 52°   Visibility: 7mi
Dew Point: 28°   Wind: 13mph
Humidity: 40%   Direction: 300°WNW
Pressure: 30.19"   Gusts: NA
Location:  35.22°N, 94.26°W
Report Text: KFSM 262353Z 30011KT 7SM CLR 11/M02 A3019 RMK AO2 SLP225 T01111022 10144 20111 53025
Loading
Personal Weather Stations






























Interactive Weather Map New forecast layout! Learn more

10-Day Weather Forecast

Advertisements
Track Severe Weather on mobile